sensor_id;sensor_type;location;lat;lon;timestamp;pressure;altitude;pressure_sealevel;temperature;humidity
60015;BME280;45867;52.480;6.056;2023-02-04T00:01:58;103184.53;;;5.45;100.00
60015;BME280;45867;52.480;6.056;2023-02-04T00:04:24;103188.69;;;5.39;100.00
60015;BME280;45867;52.480;6.056;2023-02-04T00:06:49;103191.19;;;5.32;100.00
60015;BME280;45867;52.480;6.056;2023-02-04T00:09:15;103190.50;;;5.39;100.00
60015;BME280;45867;52.480;6.056;2023-02-04T00:11:43;103191.72;;;5.28;100.00
60015;BME280;45867;52.480;6.056;2023-02-04T00:14:09;103199.75;;;5.26;100.00
60015;BME280;45867;52.480;6.056;2023-02-04T00:16:35;103205.84;;;5.27;100.00
60015;BME280;45867;52.480;6.056;2023-02-04T00:19:01;103215.06;;;5.23;100.00
60015;BME280;45867;52.480;6.056;2023-02-04T00:21:26;103203.25;;;5.19;100.00
60015;BME280;45867;52.480;6.056;2023-02-04T00:23:52;103218.84;;;5.20;100.00
60015;BME280;45867;52.480;6.056;2023-02-04T00:26:19;103231.34;;;5.18;100.00
60015;BME280;45867;52.480;6.056;2023-02-04T00:28:45;103217.56;;;5.16;100.00
60015;BME280;45867;52.480;6.056;2023-02-04T00:31:10;103219.53;;;5.14;100.00
60015;BME280;45867;52.480;6.056;2023-02-04T00:33:36;103206.75;;;5.11;100.00
60015;BME280;45867;52.480;6.056;2023-02-04T00:36:01;103206.09;;;5.09;100.00
60015;BME280;45867;52.480;6.056;2023-02-04T00:38:27;103220.19;;;5.16;100.00
60015;BME280;45867;52.480;6.056;2023-02-04T00:40:52;103226.59;;;5.14;100.00
60015;BME280;45867;52.480;6.056;2023-02-04T00:43:17;103225.13;;;5.11;100.00
60015;BME280;45867;52.480;6.056;2023-02-04T00:45:43;103222.03;;;5.07;100.00
60015;BME280;45867;52.480;6.056;2023-02-04T00:48:09;103227.41;;;5.14;100.00
60015;BME280;45867;52.480;6.056;2023-02-04T00:50:35;103240.88;;;5.19;100.00
60015;BME280;45867;52.480;6.056;2023-02-04T00:53:04;103227.22;;;5.24;100.00
60015;BME280;45867;52.480;6.056;2023-02-04T00:55:30;103234.44;;;5.30;100.00
60015;BME280;45867;52.480;6.056;2023-02-04T00:57:56;103234.72;;;5.35;100.00
60015;BME280;45867;52.480;6.056;2023-02-04T01:00:21;103235.25;;;5.30;100.00
60015;BME280;45867;52.480;6.056;2023-02-04T01:02:47;103237.53;;;5.33;100.00
60015;BME280;45867;52.480;6.056;2023-02-04T01:05:12;103245.25;;;5.35;100.00
60015;BME280;45867;52.480;6.056;2023-02-04T01:07:38;103249.63;;;5.43;100.00
60015;BME280;45867;52.480;6.056;2023-02-04T01:10:03;103245.56;;;5.40;100.00
60015;BME280;45867;52.480;6.056;2023-02-04T01:12:29;103243.59;;;5.34;100.00
60015;BME280;45867;52.480;6.056;2023-02-04T01:14:54;103237.41;;;5.27;100.00
60015;BME280;45867;52.480;6.056;2023-02-04T01:17:20;103233.69;;;5.13;100.00
60015;BME280;45867;52.480;6.056;2023-02-04T01:19:46;103248.56;;;5.21;100.00
60015;BME280;45867;52.480;6.056;2023-02-04T01:22:12;103254.69;;;5.21;100.00
60015;BME280;45867;52.480;6.056;2023-02-04T01:24:39;103256.34;;;5.14;100.00
60015;BME280;45867;52.480;6.056;2023-02-04T01:27:04;103257.19;;;5.06;100.00
60015;BME280;45867;52.480;6.056;2023-02-04T01:29:30;103284.06;;;5.25;100.00
60015;BME280;45867;52.480;6.056;2023-02-04T01:31:55;103280.13;;;5.21;100.00
60015;BME280;45867;52.480;6.056;2023-02-04T01:34:20;103269.47;;;5.14;100.00
60015;BME280;45867;52.480;6.056;2023-02-04T01:36:46;103276.69;;;5.20;100.00
60015;BME280;45867;52.480;6.056;2023-02-04T01:39:11;103264.56;;;5.11;100.00
60015;BME280;45867;52.480;6.056;2023-02-04T01:41:38;103284.09;;;5.17;100.00
60015;BME280;45867;52.480;6.056;2023-02-04T01:44:03;103286.38;;;5.20;100.00
60015;BME280;45867;52.480;6.056;2023-02-04T01:46:29;103284.44;;;5.14;100.00
60015;BME280;45867;52.480;6.056;2023-02-04T01:48:54;103289.00;;;5.20;100.00
60015;BME280;45867;52.480;6.056;2023-02-04T01:51:24;103288.19;;;5.19;100.00
60015;BME280;45867;52.480;6.056;2023-02-04T01:53:52;103289.34;;;5.17;100.00
60015;BME280;45867;52.480;6.056;2023-02-04T01:56:23;103288.66;;;5.23;100.00
60015;BME280;45867;52.480;6.056;2023-02-04T01:58:51;103290.44;;;5.30;100.00
60015;BME280;45867;52.480;6.056;2023-02-04T02:01:36;103295.06;;;5.28;100.00
60015;BME280;45867;52.480;6.056;2023-02-04T02:04:02;103295.88;;;5.29;100.00
60015;BME280;45867;52.480;6.056;2023-02-04T02:06:28;103301.63;;;5.32;100.00
60015;BME280;45867;52.480;6.056;2023-02-04T02:08:54;103295.03;;;5.37;100.00
60015;BME280;45867;52.480;6.056;2023-02-04T02:11:19;103303.56;;;5.39;100.00
60015;BME280;45867;52.480;6.056;2023-02-04T02:13:45;103312.28;;;5.39;100.00
60015;BME280;45867;52.480;6.056;2023-02-04T02:16:10;103300.63;;;5.33;100.00
60015;BME280;45867;52.480;6.056;2023-02-04T02:18:36;103311.13;;;5.33;100.00
60015;BME280;45867;52.480;6.056;2023-02-04T02:21:04;103308.19;;;5.28;100.00
60015;BME280;45867;52.480;6.056;2023-02-04T02:26:07;103314.59;;;5.26;100.00
60015;BME280;45867;52.480;6.056;2023-02-04T02:28:32;103314.31;;;5.12;100.00
60015;BME280;45867;52.480;6.056;2023-02-04T02:30:58;103323.31;;;5.26;100.00
60015;BME280;45867;52.480;6.056;2023-02-04T02:33:23;103319.41;;;5.22;100.00
60015;BME280;45867;52.480;6.056;2023-02-04T02:35:50;103322.38;;;5.19;100.00
60015;BME280;45867;52.480;6.056;2023-02-04T02:38:17;103319.25;;;5.16;100.00
60015;BME280;45867;52.480;6.056;2023-02-04T02:40:43;103325.34;;;5.16;100.00
60015;BME280;45867;52.480;6.056;2023-02-04T02:43:15;103326.31;;;5.15;100.00
60015;BME280;45867;52.480;6.056;2023-02-04T02:45:42;103326.97;;;5.17;100.00
60015;BME280;45867;52.480;6.056;2023-02-04T02:48:08;103337.31;;;5.19;100.00
60015;BME280;45867;52.480;6.056;2023-02-04T02:50:35;103312.56;;;5.05;100.00
60015;BME280;45867;52.480;6.056;2023-02-04T02:53:01;103323.06;;;5.05;100.00
60015;BME280;45867;52.480;6.056;2023-02-04T02:55:29;103335.34;;;5.04;100.00
60015;BME280;45867;52.480;6.056;2023-02-04T02:57:56;103321.41;;;5.04;100.00
60015;BME280;45867;52.480;6.056;2023-02-04T03:00:26;103322.91;;;4.98;100.00
60015;BME280;45867;52.480;6.056;2023-02-04T03:03:06;103324.56;;;4.99;100.00
60015;BME280;45867;52.480;6.056;2023-02-04T03:05:37;103325.50;;;5.06;100.00
60015;BME280;45867;52.480;6.056;2023-02-04T03:08:05;103334.38;;;5.14;100.00
60015;BME280;45867;52.480;6.056;2023-02-04T03:10:31;103341.75;;;5.10;100.00
60015;BME280;45867;52.480;6.056;2023-02-04T03:12:58;103330.94;;;5.05;100.00
60015;BME280;45867;52.480;6.056;2023-02-04T03:15:24;103348.34;;;5.06;100.00
60015;BME280;45867;52.480;6.056;2023-02-04T03:17:49;103345.53;;;5.16;100.00
60015;BME280;45867;52.480;6.056;2023-02-04T03:20:21;103356.06;;;5.16;100.00
60015;BME280;45867;52.480;6.056;2023-02-04T03:22:46;103346.84;;;5.11;100.00
60015;BME280;45867;52.480;6.056;2023-02-04T03:25:30;103354.88;;;5.10;100.00
60015;BME280;45867;52.480;6.056;2023-02-04T03:27:57;103361.16;;;5.09;100.00
60015;BME280;45867;52.480;6.056;2023-02-04T03:30:23;103361.63;;;5.12;100.00
60015;BME280;45867;52.480;6.056;2023-02-04T03:32:49;103359.84;;;5.13;100.00
60015;BME280;45867;52.480;6.056;2023-02-04T03:35:15;103354.25;;;5.08;100.00
60015;BME280;45867;52.480;6.056;2023-02-04T03:37:40;103342.44;;;5.04;100.00
60015;BME280;45867;52.480;6.056;2023-02-04T03:40:06;103346.06;;;5.03;100.00
60015;BME280;45867;52.480;6.056;2023-02-04T03:42:31;103357.22;;;5.13;100.00
60015;BME280;45867;52.480;6.056;2023-02-04T03:44:57;103353.75;;;5.04;100.00
60015;BME280;45867;52.480;6.056;2023-02-04T03:47:22;103349.16;;;5.06;100.00
60015;BME280;45867;52.480;6.056;2023-02-04T03:49:48;103349.97;;;5.07;100.00
60015;BME280;45867;52.480;6.056;2023-02-04T03:52:13;103356.38;;;5.04;100.00
60015;BME280;45867;52.480;6.056;2023-02-04T03:54:38;103354.91;;;4.94;100.00
60015;BME280;45867;52.480;6.056;2023-02-04T03:57:04;103366.41;;;5.01;100.00
60015;BME280;45867;52.480;6.056;2023-02-04T03:59:29;103361.34;;;4.99;100.00
60015;BME280;45867;52.480;6.056;2023-02-04T04:01:55;103364.59;;;5.01;100.00
60015;BME280;45867;52.480;6.056;2023-02-04T04:04:20;103362.50;;;4.97;100.00
60015;BME280;45867;52.480;6.056;2023-02-04T04:06:45;103367.09;;;4.95;100.00
60015;BME280;45867;52.480;6.056;2023-02-04T04:09:11;103364.13;;;4.89;100.00
60015;BME280;45867;52.480;6.056;2023-02-04T04:11:36;103370.88;;;4.92;100.00
60015;BME280;45867;52.480;6.056;2023-02-04T04:14:01;103370.19;;;4.82;100.00
60015;BME280;45867;52.480;6.056;2023-02-04T04:16:27;103377.94;;;4.83;100.00
60015;BME280;45867;52.480;6.056;2023-02-04T04:18:53;103378.25;;;4.80;100.00
60015;BME280;45867;52.480;6.056;2023-02-04T04:21:18;103381.53;;;4.74;100.00
60015;BME280;45867;52.480;6.056;2023-02-04T04:23:44;103387.28;;;4.78;100.00
60015;BME280;45867;52.480;6.056;2023-02-04T04:26:09;103374.16;;;4.61;100.00
60015;BME280;45867;52.480;6.056;2023-02-04T04:28:34;103373.97;;;4.63;100.00
60015;BME280;45867;52.480;6.056;2023-02-04T04:31:00;103385.47;;;4.62;100.00
60015;BME280;45867;52.480;6.056;2023-02-04T04:33:25;103393.34;;;4.62;100.00
60015;BME280;45867;52.480;6.056;2023-02-04T04:35:50;103391.88;;;4.59;100.00
60015;BME280;45867;52.480;6.056;2023-02-04T04:38:16;103401.22;;;4.54;100.00
60015;BME280;45867;52.480;6.056;2023-02-04T04:40:41;103398.41;;;4.55;100.00
60015;BME280;45867;52.480;6.056;2023-02-04T04:43:06;103408.09;;;4.55;100.00
60015;BME280;45867;52.480;6.056;2023-02-04T04:45:32;103415.66;;;4.50;100.00
60015;BME280;45867;52.480;6.056;2023-02-04T04:47:57;103421.88;;;4.49;100.00
60015;BME280;45867;52.480;6.056;2023-02-04T04:50:23;103423.19;;;4.44;100.00
60015;BME280;45867;52.480;6.056;2023-02-04T04:52:48;103430.91;;;4.46;100.00
60015;BME280;45867;52.480;6.056;2023-02-04T04:55:13;103431.22;;;4.43;100.00
60015;BME280;45867;52.480;6.056;2023-02-04T04:57:39;103438.31;;;4.42;100.00
60015;BME280;45867;52.480;6.056;2023-02-04T05:00:05;103429.78;;;4.49;100.00
60015;BME280;45867;52.480;6.056;2023-02-04T05:02:32;103447.16;;;4.50;100.00
60015;BME280;45867;52.480;6.056;2023-02-04T05:04:57;103434.53;;;4.45;100.00
60015;BME280;45867;52.480;6.056;2023-02-04T05:07:23;103434.22;;;4.48;100.00
60015;BME280;45867;52.480;6.056;2023-02-04T05:09:48;103442.44;;;4.53;100.00
60015;BME280;45867;52.480;6.056;2023-02-04T05:12:14;103446.69;;;4.54;100.00
60015;BME280;45867;52.480;6.056;2023-02-04T05:14:40;103454.88;;;4.51;100.00
60015;BME280;45867;52.480;6.056;2023-02-04T05:17:05;103437.47;;;4.42;100.00
60015;BME280;45867;52.480;6.056;2023-02-04T05:19:31;103448.28;;;4.47;100.00
60015;BME280;45867;52.480;6.056;2023-02-04T05:21:56;103430.56;;;4.41;100.00
60015;BME280;45867;52.480;6.056;2023-02-04T05:24:22;103446.66;;;4.46;100.00
60015;BME280;45867;52.480;6.056;2023-02-04T05:26:47;103455.53;;;4.45;100.00
60015;BME280;45867;52.480;6.056;2023-02-04T05:29:12;103458.66;;;4.49;100.00
60015;BME280;45867;52.480;6.056;2023-02-04T05:31:38;103451.59;;;4.49;100.00
60015;BME280;45867;52.480;6.056;2023-02-04T05:34:03;103444.84;;;4.47;100.00
60015;BME280;45867;52.480;6.056;2023-02-04T05:36:28;103446.66;;;4.46;100.00
60015;BME280;45867;52.480;6.056;2023-02-04T05:38:54;103453.88;;;4.44;100.00
60015;BME280;45867;52.480;6.056;2023-02-04T05:41:19;103457.97;;;4.47;100.00
60015;BME280;45867;52.480;6.056;2023-02-04T05:43:45;103452.06;;;4.44;100.00
60015;BME280;45867;52.480;6.056;2023-02-04T05:46:10;103451.06;;;4.37;100.00
60015;BME280;45867;52.480;6.056;2023-02-04T05:48:35;103449.59;;;4.35;100.00
60015;BME280;45867;52.480;6.056;2023-02-04T05:51:01;103454.34;;;4.31;100.00
60015;BME280;45867;52.480;6.056;2023-02-04T05:53:26;103450.03;;;4.22;100.00
60015;BME280;45867;52.480;6.056;2023-02-04T05:55:51;103454.91;;;4.09;100.00
60015;BME280;45867;52.480;6.056;2023-02-04T05:58:17;103468.66;;;4.03;100.00
60015;BME280;45867;52.480;6.056;2023-02-04T06:00:42;103469.28;;;3.96;100.00
60015;BME280;45867;52.480;6.056;2023-02-04T06:03:07;103457.78;;;3.89;100.00
60015;BME280;45867;52.480;6.056;2023-02-04T06:05:33;103467.91;;;3.84;100.00
60015;BME280;45867;52.480;6.056;2023-02-04T06:07:58;103460.66;;;3.78;100.00
60015;BME280;45867;52.480;6.056;2023-02-04T06:10:24;103467.03;;;3.75;100.00
60015;BME280;45867;52.480;6.056;2023-02-04T06:12:49;103466.53;;;3.72;100.00
60015;BME280;45867;52.480;6.056;2023-02-04T06:15:15;103471.09;;;3.70;100.00
60015;BME280;45867;52.480;6.056;2023-02-04T06:17:40;103474.88;;;3.67;100.00
60015;BME280;45867;52.480;6.056;2023-02-04T06:20:07;103472.41;;;3.66;100.00
60015;BME280;45867;52.480;6.056;2023-02-04T06:22:32;103470.91;;;3.63;100.00
60015;BME280;45867;52.480;6.056;2023-02-04T06:25:05;103494.66;;;3.62;100.00
60015;BME280;45867;52.480;6.056;2023-02-04T06:27:30;103492.81;;;3.54;100.00
60015;BME280;45867;52.480;6.056;2023-02-04T06:29:56;103484.22;;;3.44;100.00
60015;BME280;45867;52.480;6.056;2023-02-04T06:32:22;103492.59;;;3.47;100.00
60015;BME280;45867;52.480;6.056;2023-02-04T06:34:48;103503.22;;;3.46;100.00
60015;BME280;45867;52.480;6.056;2023-02-04T06:37:13;103501.72;;;3.43;100.00
60015;BME280;45867;52.480;6.056;2023-02-04T06:39:41;103499.28;;;3.42;100.00
60015;BME280;45867;52.480;6.056;2023-02-04T06:42:07;103501.97;;;3.50;100.00
60015;BME280;45867;52.480;6.056;2023-02-04T06:44:33;103503.09;;;3.47;100.00
60015;BME280;45867;52.480;6.056;2023-02-04T06:46:58;103509.47;;;3.45;100.00
60015;BME280;45867;52.480;6.056;2023-02-04T06:49:23;103509.53;;;3.35;100.00
60015;BME280;45867;52.480;6.056;2023-02-04T06:51:50;103518.31;;;3.44;100.00
60015;BME280;45867;52.480;6.056;2023-02-04T06:54:15;103519.63;;;3.48;100.00
60015;BME280;45867;52.480;6.056;2023-02-04T06:56:41;103513.41;;;3.49;100.00
60015;BME280;45867;52.480;6.056;2023-02-04T06:59:08;103522.41;;;3.46;100.00
60015;BME280;45867;52.480;6.056;2023-02-04T07:01:33;103528.41;;;3.39;100.00
60015;BME280;45867;52.480;6.056;2023-02-04T07:03:59;103538.59;;;3.42;100.00
60015;BME280;45867;52.480;6.056;2023-02-04T07:06:24;103527.06;;;3.34;100.00
60015;BME280;45867;52.480;6.056;2023-02-04T07:08:49;103525.25;;;3.35;100.00
60015;BME280;45867;52.480;6.056;2023-02-04T07:11:15;103536.59;;;3.36;100.00
60015;BME280;45867;52.480;6.056;2023-02-04T07:13:40;103538.53;;;3.33;100.00
60015;BME280;45867;52.480;6.056;2023-02-04T07:16:06;103535.00;;;3.43;100.00
60015;BME280;45867;52.480;6.056;2023-02-04T07:18:32;103526.25;;;3.34;100.00
60015;BME280;45867;52.480;6.056;2023-02-04T07:20:57;103541.66;;;3.37;100.00
60015;BME280;45867;52.480;6.056;2023-02-04T07:23:23;103535.22;;;3.31;100.00
60015;BME280;45867;52.480;6.056;2023-02-04T07:26:08;103546.09;;;3.37;100.00
60015;BME280;45867;52.480;6.056;2023-02-04T07:28:33;103545.78;;;3.40;100.00
60015;BME280;45867;52.480;6.056;2023-02-04T07:31:01;103542.84;;;3.43;100.00
60015;BME280;45867;52.480;6.056;2023-02-04T07:33:26;103552.22;;;3.45;100.00
60015;BME280;45867;52.480;6.056;2023-02-04T07:35:51;103562.56;;;3.47;100.00
60015;BME280;45867;52.480;6.056;2023-02-04T07:38:17;103564.06;;;3.49;100.00
60015;BME280;45867;52.480;6.056;2023-02-04T07:40:42;103556.63;;;3.45;100.00
60015;BME280;45867;52.480;6.056;2023-02-04T07:43:07;103566.00;;;3.47;100.00
60015;BME280;45867;52.480;6.056;2023-02-04T07:45:33;103573.13;;;3.55;100.00
60015;BME280;45867;52.480;6.056;2023-02-04T07:47:58;103585.16;;;3.66;100.00
60015;BME280;45867;52.480;6.056;2023-02-04T07:50:24;103576.00;;;3.70;100.00
60015;BME280;45867;52.480;6.056;2023-02-04T07:52:49;103583.81;;;3.80;100.00
60015;BME280;45867;52.480;6.056;2023-02-04T07:55:14;103596.00;;;3.89;100.00
60015;BME280;45867;52.480;6.056;2023-02-04T07:57:40;103595.16;;;3.88;100.00
60015;BME280;45867;52.480;6.056;2023-02-04T08:00:05;103595.72;;;4.00;100.00
60015;BME280;45867;52.480;6.056;2023-02-04T08:02:31;103595.41;;;4.03;100.00
60015;BME280;45867;52.480;6.056;2023-02-04T08:04:56;103596.59;;;4.09;100.00
60015;BME280;45867;52.480;6.056;2023-02-04T08:07:21;103590.03;;;4.05;100.00
60015;BME280;45867;52.480;6.056;2023-02-04T08:09:47;103600.59;;;4.13;100.00
60015;BME280;45867;52.480;6.056;2023-02-04T08:12:12;103600.13;;;4.17;100.00
60015;BME280;45867;52.480;6.056;2023-02-04T08:14:37;103601.44;;;4.21;100.00
60015;BME280;45867;52.480;6.056;2023-02-04T08:17:03;103617.75;;;4.33;100.00
60015;BME280;45867;52.480;6.056;2023-02-04T08:19:28;103621.56;;;4.39;100.00
60015;BME280;45867;52.480;6.056;2023-02-04T08:21:54;103633.44;;;4.51;100.00
60015;BME280;45867;52.480;6.056;2023-02-04T08:24:19;103637.25;;;4.57;100.00
60015;BME280;45867;52.480;6.056;2023-02-04T08:26:44;103634.31;;;4.60;100.00
60015;BME280;45867;52.480;6.056;2023-02-04T08:29:10;103634.75;;;4.55;100.00
60015;BME280;45867;52.480;6.056;2023-02-04T08:31:36;103636.94;;;4.60;100.00
60015;BME280;45867;52.480;6.056;2023-02-04T08:34:03;103640.06;;;4.63;100.00
60015;BME280;45867;52.480;6.056;2023-02-04T08:36:29;103644.34;;;4.64;100.00
60015;BME280;45867;52.480;6.056;2023-02-04T08:38:54;103632.69;;;4.59;100.00
60015;BME280;45867;52.480;6.056;2023-02-04T08:41:21;103647.16;;;4.71;100.00
60015;BME280;45867;52.480;6.056;2023-02-04T08:43:46;103642.25;;;4.76;100.00
60015;BME280;45867;52.480;6.056;2023-02-04T08:46:11;103648.25;;;4.95;100.00
60015;BME280;45867;52.480;6.056;2023-02-04T08:48:37;103650.13;;;5.10;100.00
60015;BME280;45867;52.480;6.056;2023-02-04T08:51:02;103657.84;;;5.20;100.00
60015;BME280;45867;52.480;6.056;2023-02-04T08:53:27;103650.78;;;5.21;100.00
60015;BME280;45867;52.480;6.056;2023-02-04T08:55:53;103654.75;;;5.25;100.00
60015;BME280;45867;52.480;6.056;2023-02-04T08:58:18;103656.94;;;5.38;100.00
60015;BME280;45867;52.480;6.056;2023-02-04T09:00:43;103638.66;;;5.36;100.00
60015;BME280;45867;52.480;6.056;2023-02-04T09:03:09;103640.97;;;5.47;100.00
60015;BME280;45867;52.480;6.056;2023-02-04T09:05:34;103644.63;;;5.63;100.00
60015;BME280;45867;52.480;6.056;2023-02-04T09:07:59;103648.06;;;5.79;100.00
60015;BME280;45867;52.480;6.056;2023-02-04T09:10:25;103656.31;;;5.85;100.00
60015;BME280;45867;52.480;6.056;2023-02-04T09:12:50;103646.28;;;6.05;100.00
60015;BME280;45867;52.480;6.056;2023-02-04T09:15:21;103660.78;;;6.09;100.00
60015;BME280;45867;52.480;6.056;2023-02-04T09:17:48;103651.06;;;6.09;100.00
60015;BME280;45867;52.480;6.056;2023-02-04T09:20:13;103657.78;;;6.28;100.00
60015;BME280;45867;52.480;6.056;2023-02-04T09:22:38;103660.56;;;6.27;100.00
60015;BME280;45867;52.480;6.056;2023-02-04T09:25:04;103652.19;;;6.15;100.00
60015;BME280;45867;52.480;6.056;2023-02-04T09:27:30;103659.44;;;6.21;100.00
60015;BME280;45867;52.480;6.056;2023-02-04T09:29:55;103658.94;;;6.26;100.00
60015;BME280;45867;52.480;6.056;2023-02-04T09:32:20;103664.34;;;6.32;100.00
60015;BME280;45867;52.480;6.056;2023-02-04T09:34:46;103658.38;;;6.55;100.00
60015;BME280;45867;52.480;6.056;2023-02-04T09:37:11;103653.25;;;6.61;100.00
60015;BME280;45867;52.480;6.056;2023-02-04T09:39:37;103658.47;;;6.78;100.00
60015;BME280;45867;52.480;6.056;2023-02-04T09:42:02;103655.13;;;6.84;100.00
60015;BME280;45867;52.480;6.056;2023-02-04T09:44:28;103664.97;;;6.90;100.00
60015;BME280;45867;52.480;6.056;2023-02-04T09:46:55;103662.50;;;6.97;100.00
60015;BME280;45867;52.480;6.056;2023-02-04T09:49:22;103668.94;;;7.25;100.00
60015;BME280;45867;52.480;6.056;2023-02-04T09:51:48;103665.19;;;7.66;100.00
60015;BME280;45867;52.480;6.056;2023-02-04T09:54:17;103659.97;;;7.57;100.00
60015;BME280;45867;52.480;6.056;2023-02-04T09:56:46;103672.56;;;7.93;100.00
60015;BME280;45867;52.480;6.056;2023-02-04T09:59:14;103665.13;;;7.97;100.00
60015;BME280;45867;52.480;6.056;2023-02-04T10:01:41;103689.44;;;8.07;100.00
60015;BME280;45867;52.480;6.056;2023-02-04T10:04:12;103684.16;;;8.07;100.00
60015;BME280;45867;52.480;6.056;2023-02-04T10:06:39;103692.00;;;8.15;100.00
60015;BME280;45867;52.480;6.056;2023-02-04T10:09:05;103691.84;;;8.17;100.00
60015;BME280;45867;52.480;6.056;2023-02-04T10:11:33;103704.25;;;8.31;100.00
60015;BME280;45867;52.480;6.056;2023-02-04T10:14:00;103703.06;;;8.34;100.00
60015;BME280;45867;52.480;6.056;2023-02-04T10:16:34;103702.13;;;8.64;100.00
60015;BME280;45867;52.480;6.056;2023-02-04T10:19:05;103703.66;;;8.88;100.00
60015;BME280;45867;52.480;6.056;2023-02-04T10:21:34;103711.44;;;8.90;100.00
60015;BME280;45867;52.480;6.056;2023-02-04T10:24:04;103710.16;;;9.01;100.00
60015;BME280;45867;52.480;6.056;2023-02-04T10:26:32;103696.63;;;9.10;100.00
60015;BME280;45867;52.480;6.056;2023-02-04T10:29:01;103714.41;;;9.17;100.00
60015;BME280;45867;52.480;6.056;2023-02-04T10:31:29;103712.09;;;9.28;100.00
60015;BME280;45867;52.480;6.056;2023-02-04T10:34:16;103714.22;;;9.18;100.00
60015;BME280;45867;52.480;6.056;2023-02-04T10:36:45;103707.84;;;9.13;100.00
60015;BME280;45867;52.480;6.056;2023-02-04T10:39:14;103712.63;;;9.39;100.00
60015;BME280;45867;52.480;6.056;2023-02-04T10:41:45;103714.31;;;9.46;100.00
60015;BME280;45867;52.480;6.056;2023-02-04T10:44:13;103708.44;;;9.66;100.00
60015;BME280;45867;52.480;6.056;2023-02-04T10:46:38;103707.03;;;9.70;100.00
60015;BME280;45867;52.480;6.056;2023-02-04T10:49:14;103715.91;;;9.84;100.00
60015;BME280;45867;52.480;6.056;2023-02-04T10:51:40;103712.38;;;9.98;100.00
60015;BME280;45867;52.480;6.056;2023-02-04T10:54:11;103714.06;;;9.84;100.00
60015;BME280;45867;52.480;6.056;2023-02-04T10:59:35;103723.66;;;10.07;100.00
60015;BME280;45867;52.480;6.056;2023-02-04T11:04:48;103723.75;;;10.20;100.00
60015;BME280;45867;52.480;6.056;2023-02-04T11:07:14;103718.38;;;10.07;100.00
60015;BME280;45867;52.480;6.056;2023-02-04T11:09:40;103734.34;;;10.20;100.00
60015;BME280;45867;52.480;6.056;2023-02-04T11:12:19;103735.69;;;10.31;100.00
60015;BME280;45867;52.480;6.056;2023-02-04T11:14:54;103731.38;;;10.58;100.00
60015;BME280;45867;52.480;6.056;2023-02-04T11:17:20;103726.88;;;10.93;100.00
60015;BME280;45867;52.480;6.056;2023-02-04T11:19:46;103735.72;;;11.00;100.00
60015;BME280;45867;52.480;6.056;2023-02-04T11:27:58;103723.78;;;10.48;100.00
60015;BME280;45867;52.480;6.056;2023-02-04T11:30:31;103717.47;;;10.21;100.00
60015;BME280;45867;52.480;6.056;2023-02-04T11:33:02;103724.75;;;10.40;100.00
60015;BME280;45867;52.480;6.056;2023-02-04T11:35:29;103721.31;;;10.47;100.00
60015;BME280;45867;52.480;6.056;2023-02-04T11:37:55;103730.72;;;10.49;100.00
60015;BME280;45867;52.480;6.056;2023-02-04T11:42:46;103727.28;;;10.55;100.00
60015;BME280;45867;52.480;6.056;2023-02-04T11:45:16;103723.47;;;10.30;100.00
60015;BME280;45867;52.480;6.056;2023-02-04T11:47:44;103723.56;;;9.93;100.00
60015;BME280;45867;52.480;6.056;2023-02-04T11:52:47;103713.88;;;10.63;100.00
60015;BME280;45867;52.480;6.056;2023-02-04T11:55:13;103722.38;;;10.87;100.00
60015;BME280;45867;52.480;6.056;2023-02-04T11:57:40;103716.56;;;11.11;100.00
60015;BME280;45867;52.480;6.056;2023-02-04T12:00:12;103716.97;;;11.15;100.00
60015;BME280;45867;52.480;6.056;2023-02-04T12:02:47;103715.97;;;11.23;100.00
60015;BME280;45867;52.480;6.056;2023-02-04T12:05:16;103707.31;;;11.82;100.00
60015;BME280;45867;52.480;6.056;2023-02-04T12:07:42;103711.00;;;12.34;100.00
60015;BME280;45867;52.480;6.056;2023-02-04T12:12:58;103717.25;;;13.63;100.00
60015;BME280;45867;52.480;6.056;2023-02-04T12:15:31;103714.63;;;13.18;100.00
60015;BME280;45867;52.480;6.056;2023-02-04T12:18:01;103706.50;;;12.35;100.00
60015;BME280;45867;52.480;6.056;2023-02-04T12:20:27;103705.06;;;12.52;100.00
60015;BME280;45867;52.480;6.056;2023-02-04T12:22:52;103710.34;;;13.10;100.00
60015;BME280;45867;52.480;6.056;2023-02-04T12:25:17;103701.41;;;13.43;100.00
60015;BME280;45867;52.480;6.056;2023-02-04T12:27:44;103712.56;;;13.59;100.00
60015;BME280;45867;52.480;6.056;2023-02-04T12:30:10;103714.66;;;13.82;100.00
60015;BME280;45867;52.480;6.056;2023-02-04T12:32:36;103703.34;;;13.86;100.00
60015;BME280;45867;52.480;6.056;2023-02-04T12:35:02;103716.25;;;13.58;100.00
60015;BME280;45867;52.480;6.056;2023-02-04T12:37:27;103712.06;;;14.62;100.00
60015;BME280;45867;52.480;6.056;2023-02-04T12:39:53;103713.25;;;16.34;100.00
60015;BME280;45867;52.480;6.056;2023-02-04T12:42:18;103723.06;;;18.00;100.00
60015;BME280;45867;52.480;6.056;2023-02-04T12:44:44;103724.81;;;18.11;100.00
60015;BME280;45867;52.480;6.056;2023-02-04T12:47:09;103718.44;;;17.16;100.00
60015;BME280;45867;52.480;6.056;2023-02-04T12:49:34;103723.03;;;16.28;100.00
60015;BME280;45867;52.480;6.056;2023-02-04T12:52:03;103721.78;;;14.93;100.00
60015;BME280;45867;52.480;6.056;2023-02-04T12:54:28;103723.13;;;14.22;100.00
60015;BME280;45867;52.480;6.056;2023-02-04T12:56:53;103706.88;;;13.10;100.00
60015;BME280;45867;52.480;6.056;2023-02-04T12:59:23;103716.75;;;12.05;100.00
60015;BME280;45867;52.480;6.056;2023-02-04T13:01:48;103718.81;;;11.96;100.00
60015;BME280;45867;52.480;6.056;2023-02-04T13:04:13;103715.25;;;11.55;100.00
60015;BME280;45867;52.480;6.056;2023-02-04T13:06:39;103708.38;;;11.94;100.00